createdAt,value
2018-07-16T00:00:06.997Z,0
2018-07-16T00:01:07.022Z,0
2018-07-16T00:02:06.779Z,0
2018-07-16T00:03:06.801Z,0
2018-07-16T00:04:06.833Z,0
2018-07-16T00:05:06.849Z,0
2018-07-16T00:06:21.536Z,0
2018-07-16T00:07:06.902Z,0
2018-07-16T00:08:06.926Z,0
2018-07-16T00:09:06.690Z,0
2018-07-16T00:10:07.231Z,0
2018-07-16T00:11:06.738Z,0
2018-07-16T00:12:07.275Z,0
2018-07-16T00:13:07.312Z,0
2018-07-16T00:14:21.727Z,0
2018-07-16T00:15:07.091Z,0
2018-07-16T00:16:07.378Z,0
2018-07-16T00:17:07.138Z,0
2018-07-16T00:18:07.167Z,0
2018-07-16T00:19:07.186Z,0
2018-07-16T00:20:06.954Z,0
2018-07-16T00:21:06.974Z,0
2018-07-16T00:22:07.263Z,0
2018-07-16T00:23:07.282Z,0
2018-07-16T00:24:07.048Z,0
2018-07-16T00:25:07.327Z,0
2018-07-16T00:26:07.618Z,0
2018-07-16T00:27:22.037Z,0
2018-07-16T00:28:07.206Z,0
2018-07-16T00:29:22.344Z,0
2018-07-16T00:30:07.715Z,0
2018-07-16T00:31:22.394Z,0
2018-07-16T00:32:07.496Z,0
2018-07-16T00:33:07.785Z,0
2018-07-16T00:34:07.802Z,0
2018-07-16T00:35:07.831Z,0
2018-07-16T00:36:07.848Z,0
2018-07-16T00:37:07.869Z,0
2018-07-16T00:38:22.301Z,0
2018-07-16T00:39:07.663Z,0
2018-07-16T00:40:07.429Z,0
2018-07-16T00:41:22.628Z,0
2018-07-16T00:42:07.991Z,0
2018-07-16T00:44:07.525Z,0
2018-07-16T00:45:08.073Z,0
2018-07-16T00:46:22.749Z,0
2018-07-16T00:47:22.774Z,0
2018-07-16T00:48:07.876Z,0
2018-07-16T00:49:07.643Z,0
2018-07-16T00:50:08.192Z,0
2018-07-16T00:51:22.617Z,0
2018-07-16T00:52:07.715Z,0
2018-07-16T00:53:22.919Z,0
2018-07-16T00:54:22.939Z,0
2018-07-16T00:55:22.964Z,0
2018-07-16T00:56:08.326Z,0
2018-07-16T00:57:07.835Z,0
2018-07-16T00:58:08.383Z,0
2018-07-16T00:59:08.405Z,0
2018-07-16T01:00:08.430Z,0
2018-07-16T01:01:08.448Z,0
2018-07-16T01:02:08.211Z,0
2018-07-16T01:03:23.151Z,0
2018-07-16T01:04:08.011Z,0
2018-07-16T01:05:08.286Z,0
2018-07-16T01:06:08.566Z,0
2018-07-16T01:07:08.586Z,0
2018-07-16T01:08:08.353Z,0
2018-07-16T01:09:08.674Z,0
2018-07-16T01:10:23.318Z,0
2018-07-16T01:11:08.681Z,0
2018-07-16T01:12:08.189Z,0
2018-07-16T01:13:08.215Z,0
2018-07-16T01:14:07.979Z,0
2018-07-16T01:15:08.540Z,0
2018-07-16T01:16:08.800Z,0
2018-07-16T01:17:08.567Z,0
2018-07-16T01:18:08.588Z,0
2018-07-16T01:19:08.874Z,0
2018-07-16T01:20:08.893Z,0
2018-07-16T01:21:08.661Z,0
2018-07-16T01:22:08.954Z,0
2018-07-16T01:23:08.706Z,0
2018-07-16T01:24:08.988Z,0
2018-07-16T01:25:08.511Z,0
2018-07-16T01:26:23.701Z,0
2018-07-16T01:27:08.805Z,0
2018-07-16T01:28:09.093Z,0
2018-07-16T01:29:08.847Z,0
2018-07-16T01:30:09.140Z,0
2018-07-16T01:31:08.901Z,0
2018-07-16T01:32:09.186Z,0
2018-07-16T01:34:09.233Z,0
2018-07-16T01:35:08.999Z,0
2018-07-16T01:36:08.759Z,0
2018-07-16T01:37:09.296Z,0
2018-07-16T01:38:09.330Z,0
2018-07-16T01:39:09.085Z,0
2018-07-16T01:40:09.110Z,0
2018-07-16T01:41:38.715Z,0
2018-07-16T01:42:09.160Z,0
2018-07-16T01:43:08.922Z,0
2018-07-16T01:44:24.122Z,0
2018-07-16T01:45:08.969Z,0
2018-07-16T01:46:08.736Z,0
2018-07-16T01:47:23.675Z,0
2018-07-16T01:48:09.559Z,0
2018-07-16T01:49:09.325Z,0
2018-07-16T01:50:09.349Z,0
2018-07-16T01:51:09.369Z,0
2018-07-16T01:52:09.657Z,0
2018-07-16T01:53:09.671Z,0
2018-07-16T01:54:09.697Z,0
2018-07-16T01:55:09.721Z,0
2018-07-16T01:56:09.485Z,0
2018-07-16T01:57:09.252Z,0
2018-07-16T01:58:09.800Z,0
2018-07-16T01:59:09.824Z,0
2018-07-16T02:00:09.585Z,0
2018-07-16T02:01:09.343Z,0
2018-07-16T02:02:09.894Z,0
2018-07-16T02:03:09.926Z,0
2018-07-16T02:04:09.938Z,0
2018-07-16T02:05:09.965Z,0
2018-07-16T02:06:24.639Z,0
2018-07-16T02:07:10.000Z,0
2018-07-16T02:08:10.028Z,0
2018-07-16T02:09:09.806Z,0
2018-07-16T02:10:09.830Z,0
2018-07-16T02:11:09.577Z,0
2018-07-16T02:12:09.857Z,0
2018-07-16T02:13:24.799Z,0
2018-07-16T02:14:09.911Z,0
2018-07-16T02:15:09.677Z,4
2018-07-16T02:16:09.977Z,4
2018-07-16T02:17:09.719Z,4
2018-07-16T02:18:09.743Z,4
2018-07-16T02:20:09.787Z,4
2018-07-16T02:21:10.329Z,4
2018-07-16T02:22:09.834Z,4
2018-07-16T02:23:10.383Z,8
2018-07-16T02:24:10.409Z,4
2018-07-16T02:25:10.170Z,8
2018-07-16T02:26:10.187Z,4
2018-07-16T02:27:10.469Z,8
2018-07-16T02:28:10.236Z,8
2018-07-16T02:29:25.179Z,12
2018-07-16T02:30:09.768Z,12
2018-07-16T02:31:10.566Z,12
2018-07-16T02:32:10.590Z,16
2018-07-16T02:33:24.754Z,20
2018-07-16T02:34:10.634Z,20
2018-07-16T02:37:10.455Z,28
2018-07-16T02:38:10.488Z,32
2018-07-16T02:39:10.856Z,36
2018-07-16T02:40:10.780Z,40
2018-07-16T02:41:10.806Z,44
2018-07-16T02:42:10.821Z,52
2018-07-16T02:43:10.863Z,56
2018-07-16T02:44:10.616Z,64
2018-07-16T02:45:40.211Z,72
2018-07-16T02:46:10.927Z,76
2018-07-16T02:47:10.679Z,84
2018-07-16T02:48:25.361Z,96
2018-07-16T02:49:10.724Z,100
2018-07-16T02:50:10.745Z,112
2018-07-16T02:51:11.030Z,120
2018-07-16T02:52:11.057Z,136
2018-07-16T02:54:11.110Z,160
2018-07-16T02:55:10.892Z,172
2018-07-16T02:56:11.151Z,188
2018-07-16T02:57:11.168Z,204
2018-07-16T02:58:10.940Z,220
2018-07-16T02:59:10.959Z,236
2018-07-16T03:00:10.726Z,256
2018-07-16T03:01:25.665Z,284
2018-07-16T03:02:11.032Z,296
2018-07-16T03:03:11.314Z,316
2018-07-16T03:04:11.349Z,340
2018-07-16T03:05:11.367Z,360
2018-07-16T03:06:11.389Z,384
2018-07-16T03:07:11.151Z,412
2018-07-16T03:08:11.172Z,432
2018-07-16T03:09:11.199Z,464
2018-07-16T03:10:11.213Z,488
2018-07-16T03:11:25.891Z,524
2018-07-16T03:12:11.543Z,548
2018-07-16T03:13:11.538Z,576
2018-07-16T03:14:11.319Z,612
2018-07-16T03:15:11.325Z,648
2018-07-16T03:16:26.277Z,692
2018-07-16T03:18:11.458Z,760
2018-07-16T03:19:11.683Z,800
2018-07-16T03:20:11.705Z,840
2018-07-16T03:21:11.474Z,880
2018-07-16T03:22:11.808Z,920
2018-07-16T03:23:11.509Z,960
2018-07-16T03:24:11.797Z,992
2018-07-16T03:25:11.821Z,1016
2018-07-16T03:26:26.250Z,1040
2018-07-16T03:27:11.606Z,1056
2018-07-16T03:28:11.626Z,1072
2018-07-16T03:29:11.651Z,1096
2018-07-16T03:30:11.682Z,1132
2018-07-16T03:31:11.984Z,1188
2018-07-16T03:32:11.471Z,1248
2018-07-16T03:33:11.736Z,1304
2018-07-16T03:34:11.761Z,1356
2018-07-16T03:35:11.783Z,1408
2018-07-16T03:36:12.093Z,1480
2018-07-16T03:37:12.091Z,1576
2018-07-16T03:38:11.695Z,1684
2018-07-16T03:39:11.879Z,1816
2018-07-16T03:40:11.905Z,1984
2018-07-16T03:41:11.924Z,2112
2018-07-16T03:42:11.950Z,2216
2018-07-16T03:43:11.971Z,2312
2018-07-16T03:44:11.993Z,2396
2018-07-16T03:45:12.286Z,2472
2018-07-16T03:46:12.045Z,2552
2018-07-16T03:47:12.322Z,2640
2018-07-16T03:48:27.006Z,2844
2018-07-16T03:49:12.109Z,2956
2018-07-16T03:50:12.393Z,3368
2018-07-16T03:51:12.157Z,3544
2018-07-16T03:52:27.099Z,3584
2018-07-16T03:53:12.465Z,3396
2018-07-16T03:54:12.224Z,3448
2018-07-16T03:55:12.249Z,3456
2018-07-16T03:56:12.297Z,3444
2018-07-16T03:57:12.554Z,3480
2018-07-16T03:58:12.317Z,3584
2018-07-16T03:59:12.340Z,3744
2018-07-16T04:00:12.105Z,3992
2018-07-16T04:01:12.130Z,4116
2018-07-16T04:02:12.671Z,4112
2018-07-16T04:03:12.698Z,4044
2018-07-16T04:04:27.123Z,4216
2018-07-16T04:05:12.739Z,4560
2018-07-16T04:07:12.797Z,4720
2018-07-16T04:08:12.548Z,4648
2018-07-16T04:09:12.571Z,4588
2018-07-16T04:10:12.337Z,4956
2018-07-16T04:11:12.883Z,5736
2018-07-16T04:12:12.905Z,5940
2018-07-16T04:13:12.662Z,6052
2018-07-16T04:14:12.950Z,6252
2018-07-16T04:15:12.975Z,5612
2018-07-16T04:16:27.398Z,8192
2018-07-16T04:17:13.035Z,17056
2018-07-16T04:19:13.060Z,27808
2018-07-16T04:20:27.750Z,23776
2018-07-16T04:21:13.112Z,19040
2018-07-16T04:23:12.651Z,16288
2018-07-16T04:24:13.182Z,8728
2018-07-16T04:25:12.949Z,8928
2018-07-16T04:26:13.227Z,10152
2018-07-16T04:27:12.998Z,10360
2018-07-16T04:28:13.027Z,8564
2018-07-16T04:29:27.965Z,8148
2018-07-16T04:30:13.330Z,7792
2018-07-16T04:31:13.352Z,8192
2018-07-16T04:32:13.378Z,7604
2018-07-16T04:33:13.395Z,6948
2018-07-16T04:34:28.169Z,9096
2018-07-16T04:35:13.454Z,9560
2018-07-16T04:36:28.132Z,8700
2018-07-16T04:37:13.240Z,8996
2018-07-16T04:38:13.527Z,9492
2018-07-16T04:39:13.554Z,12748
2018-07-16T04:41:13.342Z,19584
2018-07-16T04:42:28.019Z,29408
2018-07-16T04:43:13.740Z,44640
2018-07-16T04:45:13.703Z,51136
2018-07-16T04:46:28.116Z,55040
2018-07-16T04:47:13.837Z,53888
2018-07-16T04:48:13.505Z,55712
2018-07-16T04:49:13.799Z,56352
2018-07-16T04:50:13.816Z,56704
2018-07-16T04:51:28.249Z,57472
2018-07-16T04:52:28.531Z,58016
2018-07-16T04:53:13.634Z,60384
2018-07-16T04:54:13.924Z,60032
2018-07-16T04:55:13.946Z,60864
2018-07-16T04:56:28.427Z,63136
2018-07-16T04:57:14.006Z,63584
2018-07-16T04:58:14.034Z,65696
2018-07-16T04:59:13.807Z,66208
2018-07-16T05:00:28.756Z,65472
2018-07-16T05:01:13.869Z,66624
2018-07-16T05:02:14.145Z,69408
2018-07-16T05:03:14.068Z,70176
2018-07-16T05:04:13.949Z,69408
2018-07-16T05:05:14.249Z,69280
2018-07-16T05:06:14.005Z,70144
2018-07-16T05:07:14.044Z,70528
2018-07-16T05:08:14.332Z,71072
2018-07-16T05:09:14.098Z,71584
2018-07-16T05:10:29.051Z,73376
2018-07-16T05:12:14.196Z,73920
2018-07-16T05:13:14.223Z,75840
2018-07-16T05:15:14.291Z,75392
2018-07-16T05:16:29.242Z,73344
2018-07-16T05:17:14.610Z,73536
2018-07-16T05:18:15.030Z,75200
2018-07-16T05:19:14.744Z,77824
2018-07-16T05:20:14.452Z,79936
2018-07-16T05:21:14.490Z,79200
2018-07-16T05:22:14.776Z,77056
2018-07-16T05:23:29.472Z,75296
2018-07-16T05:24:14.759Z,73248
2018-07-16T05:26:14.917Z,80768
2018-07-16T05:27:14.683Z,81120
2018-07-16T05:28:14.976Z,82560
2018-07-16T05:29:15.013Z,81440
2018-07-16T05:30:14.525Z,81216
2018-07-16T05:31:15.079Z,80544
2018-07-16T05:32:15.482Z,80320
2018-07-16T05:33:29.293Z,77856
2018-07-16T05:34:15.180Z,81152
2018-07-16T05:35:15.214Z,82016
2018-07-16T05:36:15.252Z,82272
2018-07-16T05:37:15.283Z,83168
2018-07-16T05:38:15.673Z,82272
2018-07-16T05:39:29.759Z,81696
2018-07-16T05:40:15.387Z,83520
2018-07-16T05:41:15.421Z,86752
2018-07-16T05:42:15.460Z,88960
2018-07-16T05:43:15.249Z,87040
2018-07-16T05:44:15.534Z,86592
2018-07-16T05:45:15.565Z,87488
2018-07-16T05:46:15.343Z,86720
2018-07-16T05:47:15.222Z,91264
2018-07-16T05:48:15.673Z,89888
2018-07-16T05:49:15.715Z,88768
2018-07-16T05:50:30.402Z,90112
2018-07-16T05:51:15.519Z,87200
2018-07-16T05:52:15.809Z,89728
2018-07-16T05:53:15.960Z,92864
2018-07-16T05:54:15.882Z,94048
2018-07-16T05:55:30.591Z,90624
2018-07-16T05:56:15.445Z,91808
2018-07-16T05:57:30.654Z,89248
2018-07-16T05:58:16.243Z,90688
2018-07-16T05:59:16.079Z,90816
2018-07-16T06:01:30.550Z,88224
2018-07-16T06:02:16.172Z,87744
2018-07-16T06:03:16.209Z,87840
2018-07-16T06:04:30.654Z,88352
2018-07-16T06:05:16.288Z,90048
2018-07-16T06:06:16.058Z,92160
2018-07-16T06:07:16.099Z,91168
2018-07-16T06:08:15.875Z,88608
2018-07-16T06:09:16.440Z,88192
2018-07-16T06:10:16.464Z,90688
2018-07-16T06:11:31.163Z,92096
2018-07-16T06:12:16.540Z,91712
2018-07-16T06:13:31.248Z,93792
2018-07-16T06:14:16.364Z,93920
2018-07-16T06:15:16.656Z,97600
2018-07-16T06:16:16.690Z,96544
2018-07-16T06:17:16.725Z,94752
2018-07-16T06:18:31.423Z,95200
2018-07-16T06:19:16.535Z,92960
2018-07-16T06:20:16.836Z,92032
2018-07-16T06:21:16.612Z,95392
2018-07-16T06:22:16.650Z,96928
2018-07-16T06:23:16.960Z,98624
2018-07-16T06:24:17.127Z,95360
2018-07-16T06:25:16.771Z,90528
2018-07-16T06:26:31.720Z,90464
2018-07-16T06:27:17.105Z,89984
2018-07-16T06:28:17.149Z,91968
2018-07-16T06:29:17.166Z,96384
2018-07-16T06:31:17.295Z,93568
2018-07-16T06:32:17.298Z,91296
2018-07-16T06:33:17.321Z,90976
2018-07-16T06:34:31.764Z,94944
2018-07-16T06:35:17.140Z,95712
2018-07-16T06:36:17.432Z,96320
2018-07-16T06:37:17.547Z,93920
2018-07-16T06:38:17.506Z,94080
2018-07-16T06:39:17.540Z,96096
2018-07-16T06:40:17.867Z,95712
2018-07-16T06:41:19.739Z,92256
2018-07-16T06:42:32.321Z,88192
2018-07-16T06:43:17.700Z,86912
2018-07-16T06:44:17.730Z,92704
2018-07-16T06:46:17.290Z,90400
2018-07-16T06:48:17.880Z,89568
2018-07-16T06:49:17.664Z,92384
2018-07-16T06:50:32.366Z,92128
2018-07-16T06:51:17.753Z,92224
2018-07-16T06:52:18.037Z,92864
2018-07-16T06:53:18.072Z,92128
2018-07-16T06:54:32.780Z,92256
2018-07-16T06:55:18.221Z,91488
2018-07-16T06:56:18.188Z,89120
2018-07-16T06:57:18.242Z,86624
2018-07-16T06:58:32.928Z,89088
2018-07-16T06:59:18.040Z,90464
2018-07-16T07:00:18.343Z,90976
2018-07-16T07:01:18.380Z,88288
2018-07-16T07:02:18.634Z,88544
2018-07-16T07:03:18.455Z,89376
2018-07-16T07:04:33.168Z,90144
2018-07-16T07:05:18.526Z,88800
2018-07-16T07:06:18.565Z,84768
2018-07-16T07:07:18.347Z,83968
2018-07-16T07:08:18.641Z,85248
2018-07-16T07:09:18.681Z,88992
2018-07-16T07:10:18.912Z,88544
2018-07-16T07:11:18.862Z,88672
2018-07-16T07:12:18.797Z,87968
2018-07-16T07:13:18.573Z,86080
2018-07-16T07:14:33.546Z,86368
2018-07-16T07:15:18.658Z,86304
2018-07-16T07:16:18.955Z,85088
2018-07-16T07:17:18.997Z,82528
2018-07-16T07:18:19.071Z,81472
2018-07-16T07:19:18.811Z,80704
2018-07-16T07:20:19.114Z,80192
2018-07-16T07:22:33.845Z,80000
2018-07-16T07:23:19.216Z,80928
2018-07-16T07:24:19.259Z,81504
2018-07-16T07:25:19.349Z,84224
2018-07-16T07:26:34.023Z,83168
2018-07-16T07:28:19.411Z,77088
2018-07-16T07:29:19.195Z,80288
2018-07-16T07:30:48.821Z,76928
2018-07-16T07:31:19.273Z,75808
2018-07-16T07:32:19.566Z,75136
2018-07-16T07:33:19.604Z,77472
2018-07-16T07:34:19.647Z,74752
2018-07-16T07:35:20.185Z,74784
2018-07-16T07:37:19.506Z,78912
2018-07-16T07:38:34.464Z,79072
2018-07-16T07:39:19.599Z,77152
2018-07-16T07:40:34.027Z,77376
2018-07-16T07:41:19.659Z,77248
2018-07-16T07:42:19.966Z,73312
2018-07-16T07:43:19.997Z,71712
2018-07-16T07:44:34.707Z,76672
2018-07-16T07:45:20.069Z,76000
2018-07-16T07:47:19.893Z,69792
2018-07-16T07:48:19.934Z,70880
2018-07-16T07:49:20.231Z,73120
2018-07-16T07:50:20.267Z,73632
2018-07-16T07:52:35.004Z,65248
2018-07-16T07:53:20.386Z,65344
2018-07-16T07:54:21.069Z,69248
2018-07-16T07:55:23.113Z,70176
2018-07-16T07:56:20.494Z,68064
2018-07-16T07:57:20.537Z,67200
2018-07-16T07:58:20.577Z,65696
2018-07-16T07:59:20.360Z,67360
2018-07-16T08:01:35.091Z,63872
2018-07-16T08:02:20.728Z,65696
2018-07-16T08:03:20.574Z,68288
2018-07-16T08:04:35.207Z,67584
2018-07-16T08:05:20.844Z,66976
2018-07-16T08:06:20.876Z,64896
2018-07-16T08:07:20.916Z,64384
2018-07-16T08:08:20.437Z,67296
2018-07-16T08:09:21.578Z,65088
2018-07-16T08:10:21.049Z,63904
2018-07-16T08:11:21.094Z,66048
2018-07-16T08:12:21.132Z,65056
2018-07-16T08:13:21.185Z,61920
2018-07-16T08:14:20.942Z,60000
2018-07-16T08:15:21.258Z,62464
2018-07-16T08:16:21.501Z,64224
2018-07-16T08:17:35.972Z,63776
2018-07-16T08:18:21.414Z,62624
2018-07-16T08:19:21.402Z,64576
2018-07-16T08:20:21.166Z,64160
2018-07-16T08:22:21.530Z,61984
2018-07-16T08:23:21.539Z,60832
2018-07-16T08:24:22.969Z,60320
2018-07-16T08:25:21.637Z,58048
2018-07-16T08:26:21.666Z,61184
2018-07-16T08:27:21.703Z,61984
2018-07-16T08:28:36.122Z,56864
2018-07-16T08:29:21.516Z,55136
2018-07-16T08:30:21.538Z,58336
2018-07-16T08:31:21.841Z,61344
2018-07-16T08:32:22.536Z,62848
2018-07-16T08:33:51.366Z,61280
2018-07-16T08:34:36.608Z,59008
2018-07-16T08:35:21.990Z,59136
2018-07-16T08:36:22.029Z,58848
2018-07-16T08:38:21.840Z,60320
2018-07-16T08:39:22.355Z,57440
2018-07-16T08:40:21.642Z,52128
2018-07-16T08:41:22.237Z,53280
2018-07-16T08:42:21.995Z,52352
2018-07-16T08:44:22.354Z,48864
2018-07-16T08:45:22.354Z,36480
2018-07-16T08:46:22.354Z,25536
2018-07-16T08:47:22.407Z,21536
2018-07-16T08:49:37.144Z,20640
2018-07-16T08:50:22.522Z,20512
2018-07-16T08:51:22.295Z,20416
2018-07-16T08:52:22.330Z,20352
2018-07-16T08:53:22.373Z,20192
2018-07-16T08:54:22.712Z,19968
2018-07-16T08:55:22.699Z,19840
2018-07-16T08:56:22.477Z,19648
2018-07-16T08:57:37.446Z,19552
2018-07-16T08:58:22.549Z,19424
2018-07-16T08:59:23.201Z,19424
2018-07-16T09:00:22.628Z,19360
2018-07-16T09:01:22.918Z,19168
2018-07-16T09:02:22.965Z,19072
2018-07-16T09:03:23.007Z,18944
2018-07-16T09:04:23.028Z,19296
2018-07-16T09:05:37.733Z,19264
2018-07-16T09:06:23.099Z,19072
2018-07-16T09:07:22.894Z,18976
2018-07-16T09:09:23.204Z,18752
2018-07-16T09:10:23.252Z,18752
2018-07-16T09:13:23.591Z,18656
2018-07-16T09:14:23.129Z,18496
2018-07-16T09:15:23.163Z,18464
2018-07-16T09:16:37.863Z,18400
2018-07-16T09:17:23.238Z,18304
2018-07-16T09:18:23.527Z,18272
2018-07-16T09:19:23.575Z,18208
2018-07-16T09:21:38.298Z,18208
2018-07-16T09:22:23.672Z,17940
2018-07-16T09:23:23.449Z,17864
2018-07-16T09:24:23.224Z,17788
2018-07-16T09:25:23.978Z,17824
2018-07-16T09:26:23.812Z,17724
2018-07-16T09:27:23.588Z,17356
2018-07-16T09:28:23.896Z,17184
2018-07-16T09:29:23.924Z,17084
2018-07-16T09:30:23.692Z,17048
2018-07-16T09:31:23.990Z,17008
2018-07-16T09:32:23.762Z,16892
2018-07-16T09:33:24.056Z,16872
2018-07-16T09:34:24.093Z,16816
2018-07-16T09:35:23.868Z,16592
2018-07-16T09:36:38.823Z,16316
2018-07-16T09:37:24.214Z,16232
2018-07-16T09:38:38.893Z,16156
2018-07-16T09:39:24.270Z,16016
2018-07-16T09:40:24.310Z,15872
2018-07-16T09:41:24.336Z,15800
2018-07-16T09:42:24.452Z,15908
2018-07-16T09:43:24.411Z,15968
2018-07-16T09:44:24.730Z,15832
2018-07-16T09:45:24.216Z,15688
2018-07-16T09:46:24.516Z,15536
2018-07-16T09:47:24.295Z,15412
2018-07-16T09:48:24.326Z,15408
2018-07-16T09:49:24.714Z,15248
2018-07-16T09:50:24.696Z,15252
2018-07-16T09:51:39.349Z,15172
2018-07-16T09:52:24.716Z,15176
2018-07-16T09:53:24.749Z,15180
2018-07-16T09:54:24.527Z,15148
2018-07-16T09:55:24.817Z,15072
2018-07-16T09:56:25.010Z,15092
2018-07-16T09:58:39.333Z,14996
2018-07-16T09:59:24.702Z,14948
2018-07-16T10:00:24.736Z,14824
2018-07-16T10:01:25.034Z,14776
2018-07-16T10:02:25.072Z,14652
2018-07-16T10:03:24.839Z,14580
2018-07-16T10:04:24.876Z,14456
2018-07-16T10:05:24.644Z,14344
2018-07-16T10:06:24.937Z,14292
2018-07-16T10:07:24.974Z,14256
2018-07-16T10:08:54.592Z,14188
2018-07-16T10:09:25.044Z,14092
2018-07-16T10:10:39.738Z,13988
2018-07-16T10:11:40.043Z,13852
2018-07-16T10:12:25.405Z,13740
2018-07-16T10:13:25.443Z,13712
2018-07-16T10:14:25.472Z,13800
2018-07-16T10:15:25.515Z,13880
2018-07-16T10:16:25.276Z,13884
2018-07-16T10:17:25.314Z,13748
2018-07-16T10:18:25.605Z,13732
2018-07-16T10:19:25.639Z,13760
2018-07-16T10:21:25.444Z,13792
2018-07-16T10:22:25.476Z,13732
2018-07-16T10:24:40.476Z,13628
2018-07-16T10:25:25.321Z,13640
2018-07-16T10:26:25.611Z,13512
2018-07-16T10:27:25.904Z,13364
2018-07-16T10:28:25.937Z,13324
2018-07-16T10:29:25.714Z,13192
2018-07-16T10:30:25.745Z,13108
2018-07-16T10:31:26.045Z,13080
2018-07-16T10:32:25.559Z,13044
2018-07-16T10:33:25.591Z,13032
2018-07-16T10:34:26.145Z,12904
2018-07-16T10:35:26.230Z,12736
2018-07-16T10:36:25.948Z,12676
2018-07-16T10:37:25.980Z,12648
2018-07-16T10:38:26.269Z,12688
2018-07-16T10:39:41.035Z,12620
2018-07-16T10:40:41.001Z,12640
2018-07-16T10:41:26.375Z,12632
2018-07-16T10:42:26.411Z,12652
2018-07-16T10:44:41.132Z,12596
2018-07-16T10:45:41.171Z,12600
2018-07-16T10:47:26.573Z,12508
2018-07-16T10:49:26.118Z,12432
2018-07-16T10:50:41.073Z,12288
2018-07-16T10:51:41.364Z,12236
2018-07-16T10:52:26.745Z,12184
2018-07-16T10:53:26.770Z,12056
2018-07-16T10:54:26.798Z,11984
2018-07-16T10:55:27.043Z,11820
2018-07-16T10:56:41.528Z,11800
2018-07-16T10:58:26.163Z,11604
2018-07-16T10:59:41.631Z,11556
2018-07-16T11:01:26.772Z,11560
2018-07-16T11:02:27.058Z,11488
2018-07-16T11:03:27.097Z,11472
2018-07-16T11:04:26.605Z,11504
2018-07-16T11:05:27.553Z,11476
2018-07-16T11:06:26.931Z,11436
2018-07-16T11:07:27.220Z,11368
2018-07-16T11:09:27.280Z,11244
2018-07-16T11:10:27.312Z,11188
2018-07-16T11:11:42.010Z,11144
2018-07-16T11:12:27.379Z,11124
2018-07-16T11:13:27.412Z,11092
2018-07-16T11:14:27.451Z,11032
2018-07-16T11:15:27.475Z,10968
2018-07-16T11:16:27.253Z,10928
2018-07-16T11:17:27.534Z,10872
2018-07-16T11:18:27.569Z,10708
2018-07-16T11:19:27.640Z,10524
2018-07-16T11:20:27.648Z,10328
2018-07-16T11:21:27.674Z,10132
2018-07-16T11:22:27.690Z,9948
2018-07-16T11:23:27.206Z,9756
2018-07-16T11:24:27.752Z,9568
2018-07-16T11:25:27.782Z,9416
2018-07-16T11:26:27.818Z,9272
2018-07-16T11:27:27.842Z,9084
2018-07-16T11:28:27.618Z,8912
2018-07-16T11:30:42.349Z,8544
2018-07-16T11:31:27.717Z,8556
2018-07-16T11:32:28.001Z,8520
2018-07-16T11:33:27.517Z,8528
2018-07-16T11:35:28.349Z,8428
2018-07-16T11:36:27.868Z,8376
2018-07-16T11:37:28.155Z,8304
2018-07-16T11:38:28.190Z,8224
2018-07-16T11:39:42.877Z,8188
2018-07-16T11:40:27.986Z,8140
2018-07-16T11:41:28.020Z,8096
2018-07-16T11:42:28.048Z,8012
2018-07-16T11:43:43.014Z,7892
2018-07-16T11:44:27.902Z,7848
2018-07-16T11:45:28.406Z,7780
2018-07-16T11:46:28.179Z,7752
2018-07-16T11:47:28.478Z,7700
2018-07-16T11:48:28.230Z,7628
2018-07-16T11:49:28.529Z,7468
2018-07-16T11:50:42.956Z,7376
2018-07-16T11:51:28.581Z,7264
2018-07-16T11:52:28.514Z,7196
2018-07-16T11:53:28.639Z,7064
2018-07-16T11:54:28.672Z,6972
2018-07-16T11:55:28.706Z,6908
2018-07-16T11:56:28.738Z,6868
2018-07-16T11:57:28.508Z,6872
2018-07-16T11:58:28.535Z,4756
2018-07-16T11:59:42.975Z,4936
2018-07-16T12:00:28.611Z,4356
2018-07-16T12:01:28.890Z,4260
2018-07-16T12:02:28.917Z,4276
2018-07-16T12:03:28.551Z,6172
2018-07-16T12:04:28.459Z,6680
2018-07-16T12:05:28.766Z,6544
2018-07-16T12:06:28.880Z,6604
2018-07-16T12:07:43.731Z,6544
2018-07-16T12:08:28.836Z,6544
2018-07-16T12:09:28.884Z,6648
2018-07-16T12:10:29.162Z,6744
2018-07-16T12:11:29.193Z,6832
2018-07-16T12:12:29.340Z,6968
2018-07-16T12:13:28.727Z,6944
2018-07-16T12:14:28.762Z,6948
2018-07-16T12:15:58.631Z,6804
2018-07-16T12:16:29.340Z,6768
2018-07-16T12:17:29.367Z,6736
2018-07-16T12:18:43.799Z,6764
2018-07-16T12:19:29.420Z,6776
2018-07-16T12:20:43.601Z,6836
2018-07-16T12:21:29.486Z,6784
2018-07-16T12:22:29.261Z,6812
2018-07-16T12:23:29.293Z,6820
2018-07-16T12:24:29.325Z,6764
2018-07-16T12:25:44.009Z,6720
2018-07-16T12:26:29.636Z,6696
2018-07-16T12:27:29.662Z,6800
2018-07-16T12:28:29.470Z,6924
2018-07-16T12:29:29.727Z,7060
2018-07-16T12:30:29.752Z,7120
2018-07-16T12:31:44.447Z,7208
2018-07-16T12:32:29.810Z,7240
2018-07-16T12:33:29.841Z,7108
2018-07-16T12:35:29.644Z,6832
2018-07-16T12:36:29.950Z,6776
2018-07-16T12:37:29.960Z,6732
2018-07-16T12:38:29.988Z,6684
2018-07-16T12:39:30.031Z,6680
2018-07-16T12:40:30.066Z,6672
2018-07-16T12:41:30.646Z,6680
2018-07-16T12:42:30.113Z,6700
2018-07-16T12:43:29.634Z,6704
2018-07-16T12:44:30.200Z,6680
2018-07-16T12:45:29.949Z,6688
2018-07-16T12:46:44.894Z,6680
2018-07-16T12:47:30.277Z,6684
2018-07-16T12:48:30.298Z,6732
2018-07-16T12:49:30.181Z,6740
2018-07-16T12:50:30.358Z,6740
2018-07-16T12:51:30.386Z,6740
2018-07-16T12:52:30.472Z,6792
2018-07-16T12:53:30.439Z,6812
2018-07-16T12:54:30.212Z,6828
2018-07-16T12:55:30.543Z,6928
2018-07-16T12:56:30.274Z,6960
2018-07-16T12:57:30.045Z,6972
2018-07-16T12:58:30.589Z,7060
2018-07-16T12:59:30.360Z,7192
2018-07-16T13:00:45.058Z,7260
2018-07-16T13:01:30.688Z,7308
2018-07-16T13:02:30.192Z,7312
2018-07-16T13:03:30.733Z,7304
2018-07-16T13:04:30.770Z,7308
2018-07-16T13:05:30.539Z,7288
2018-07-16T13:06:45.229Z,7348
2018-07-16T13:07:31.057Z,7284
2018-07-16T13:08:30.887Z,7120
2018-07-16T13:10:30.947Z,6956
2018-07-16T13:11:45.643Z,6976
2018-07-16T13:12:31.013Z,6976
2018-07-16T13:13:31.041Z,7024
2018-07-16T13:14:45.721Z,7116
2018-07-16T13:15:31.092Z,7192
2018-07-16T13:16:31.125Z,7236
2018-07-16T13:17:31.156Z,7200
2018-07-16T13:18:45.846Z,7156
2018-07-16T13:19:45.615Z,7144
2018-07-16T13:20:31.238Z,7148
2018-07-16T13:21:31.331Z,7172
2018-07-16T13:23:31.328Z,7128
2018-07-16T13:24:30.842Z,7056
2018-07-16T13:25:46.051Z,6960
2018-07-16T13:27:46.108Z,7048
2018-07-16T13:28:31.478Z,7076
2018-07-16T13:29:31.252Z,7208
2018-07-16T13:30:31.543Z,7352
2018-07-16T13:31:31.046Z,7440
2018-07-16T13:32:31.076Z,7336
2018-07-16T13:33:31.623Z,7460
2018-07-16T13:34:45.799Z,7780
2018-07-16T13:35:46.342Z,7728
2018-07-16T13:36:31.715Z,7884
2018-07-16T13:37:31.746Z,7840
2018-07-16T13:39:31.801Z,7660
2018-07-16T13:40:31.573Z,7756
2018-07-16T13:41:31.348Z,7908
2018-07-16T13:42:31.630Z,7968
2018-07-16T13:43:31.932Z,7960
2018-07-16T13:44:46.352Z,7888
2018-07-16T13:45:31.976Z,7820
2018-07-16T13:46:46.899Z,7732
2018-07-16T13:47:31.775Z,7764
2018-07-16T13:48:31.808Z,7872
2018-07-16T13:49:31.835Z,7856
2018-07-16T13:51:01.447Z,7780
2018-07-16T13:51:31.900Z,7772
2018-07-16T13:52:31.665Z,7756
2018-07-16T13:53:31.956Z,7732
2018-07-16T13:54:32.255Z,7700
2018-07-16T13:55:32.269Z,7748
2018-07-16T13:56:32.038Z,7800
2018-07-16T13:57:32.070Z,7900
2018-07-16T13:58:32.371Z,8016
2018-07-16T13:59:47.178Z,8152
2018-07-16T14:00:32.419Z,8236
2018-07-16T14:01:32.186Z,8464
2018-07-16T14:03:32.507Z,8704
2018-07-16T14:04:32.540Z,8568
2018-07-16T14:05:32.564Z,8860
2018-07-16T14:06:47.254Z,8924
2018-07-16T14:07:47.283Z,9112
2018-07-16T14:08:32.753Z,9228
2018-07-16T14:09:47.382Z,9368
2018-07-16T14:11:32.740Z,9404
2018-07-16T14:12:33.062Z,9404
2018-07-16T14:13:32.795Z,9360